Time;durP1;ratioP1;P1;durP2;ratioP2;P2;SDS_P1;SDS_P2;PMS_P1;PMS_P2;Temp;Humidity;BMP_temperature;BMP_pressure;BME280_temperature;BME280_humidity;BME280_pressure;Samples;Min_cycle;Max_cycle;Signal;HPM_P1;HPM_P2
2023/08/24 00:02:27;;;;;;;12.70;6.43;;;17.10;99.90;;;;;;5048710;28;20504;-60
2023/08/24 00:04:56;;;;;;;15.68;6.85;;;17.10;99.90;;;;;;5047946;28;20049;-60
2023/08/24 00:07:24;;;;;;;10.75;5.60;;;17.10;99.90;;;;;;5032724;28;20045;-60
2023/08/24 00:09:53;;;;;;;15.90;5.95;;;17.10;99.90;;;;;;5048680;28;20523;-60
2023/08/24 00:12:21;;;;;;;12.93;6.38;;;17.10;99.90;;;;;;5049354;28;20056;-60
2023/08/24 00:14:49;;;;;;;10.45;5.20;;;17.10;99.90;;;;;;5049128;28;20056;-60
2023/08/24 00:17:16;;;;;;;9.90;5.30;;;17.20;99.90;;;;;;5047631;28;20053;-60
2023/08/24 00:19:46;;;;;;;11.48;5.45;;;17.10;99.90;;;;;;5046777;28;20041;-60
2023/08/24 00:22:13;;;;;;;10.18;5.35;;;17.20;99.90;;;;;;5029022;28;20065;-60
2023/08/24 00:24:41;;;;;;;8.57;4.60;;;17.20;99.90;;;;;;5040668;28;20056;-60
2023/08/24 00:27:10;;;;;;;13.20;4.97;;;17.20;99.90;;;;;;5048803;28;20072;-61
2023/08/24 00:29:37;;;;;;;10.00;4.93;;;17.20;99.90;;;;;;5049079;28;20476;-61
2023/08/24 00:32:05;;;;;;;8.88;4.72;;;17.20;99.90;;;;;;5047480;28;20536;-60
2023/08/24 00:34:33;;;;;;;10.07;5.28;;;17.30;99.90;;;;;;5052791;28;20053;-61
2023/08/24 00:37:01;;;;;;;8.15;4.45;;;17.20;99.90;;;;;;5043565;28;20501;-61
2023/08/24 00:39:29;;;;;;;8.40;5.15;;;17.20;99.90;;;;;;5048518;28;20076;-60
2023/08/24 00:41:58;;;;;;;11.57;5.47;;;17.20;99.90;;;;;;5037855;28;20492;-60
2023/08/24 00:44:25;;;;;;;9.65;5.20;;;17.20;99.90;;;;;;5044489;28;20064;-61
2023/08/24 00:46:56;;;;;;;8.90;4.95;;;17.20;99.90;;;;;;5048273;28;20037;-60
2023/08/24 00:49:24;;;;;;;9.32;4.85;;;17.20;99.90;;;;;;5048717;28;20059;-60
2023/08/24 00:51:52;;;;;;;11.80;4.97;;;17.30;99.90;;;;;;5030188;28;20056;-61
2023/08/24 00:54:20;;;;;;;13.20;4.97;;;17.30;99.90;;;;;;5042617;28;20500;-60
2023/08/24 00:56:48;;;;;;;11.95;4.93;;;17.30;99.90;;;;;;5047000;28;20404;-60
2023/08/24 00:59:16;;;;;;;9.98;4.68;;;17.30;99.90;;;;;;5047728;28;20048;-60
2023/08/24 01:01:46;;;;;;;13.00;4.80;;;17.30;99.90;;;;;;5041559;28;20045;-61
2023/08/24 01:04:14;;;;;;;11.30;5.40;;;17.30;99.90;;;;;;5038536;28;20048;-61
2023/08/24 01:06:42;;;;;;;12.05;5.68;;;17.30;99.90;;;;;;5037746;28;20045;-60
2023/08/24 01:09:11;;;;;;;11.40;5.68;;;17.30;99.90;;;;;;5046743;28;20247;-60
2023/08/24 01:11:43;;;;;;;10.95;5.50;;;17.30;99.90;;;;;;5030571;28;20048;-62
2023/08/24 01:14:14;;;;;;;7.88;3.45;;;17.30;99.90;;;;;;5050115;28;20057;-60
2023/08/24 01:16:45;;;;;;;5.35;2.97;;;17.30;99.90;;;;;;5032556;28;20044;-60
2023/08/24 01:19:31;;;;;;;12.43;3.63;;;17.30;99.90;;;;;;5047768;28;20053;-60
2023/08/24 01:22:05;;;;;;;4.85;3.40;;;17.30;99.90;;;;;;5021649;28;20045;-60
2023/08/24 01:24:46;;;;;;;9.32;4.18;;;17.40;99.90;;;;;;5039619;28;20477;-60
2023/08/24 01:27:15;;;;;;;9.00;4.47;;;17.40;99.90;;;;;;5044554;28;20052;-60
2023/08/24 01:29:42;;;;;;;8.27;4.55;;;17.40;99.90;;;;;;5041883;28;20033;-60
2023/08/24 01:32:13;;;;;;;7.22;3.70;;;17.50;99.90;;;;;;5006165;28;20045;-60
2023/08/24 01:34:41;;;;;;;10.93;3.88;;;17.40;99.90;;;;;;5039793;28;20041;-60
2023/08/24 01:37:09;;;;;;;7.88;3.63;;;17.50;99.90;;;;;;5050835;28;20045;-60
2023/08/24 01:39:57;;;;;;;7.60;3.80;;;17.50;99.90;;;;;;5050696;28;20048;-60
2023/08/24 01:42:29;;;;;;;4.78;3.10;;;17.50;99.90;;;;;;5050030;28;20415;-60
2023/08/24 01:45:03;;;;;;;4.60;3.55;;;17.60;99.90;;;;;;5031317;28;20396;-60
2023/08/24 01:47:31;;;;;;;7.88;2.75;;;17.60;99.90;;;;;;5033168;28;20042;-60
2023/08/24 01:50:01;;;;;;;8.47;3.77;;;17.50;99.90;;;;;;5040873;28;20047;-61
2023/08/24 01:52:29;;;;;;;5.63;3.05;;;17.50;99.90;;;;;;5049716;28;20301;-60
2023/08/24 01:54:56;;;;;;;5.25;3.40;;;17.50;99.90;;;;;;5048826;28;20045;-60
2023/08/24 01:57:25;;;;;;;5.93;3.30;;;17.50;99.90;;;;;;5050863;28;20547;-60
2023/08/24 01:59:54;;;;;;;6.47;3.35;;;17.50;99.90;;;;;;5042533;28;20425;-61
2023/08/24 02:02:21;;;;;;;8.32;3.72;;;17.50;99.90;;;;;;5053605;28;20053;-61
2023/08/24 02:04:52;;;;;;;8.48;4.07;;;17.50;99.90;;;;;;5054372;28;20060;-60
2023/08/24 02:07:20;;;;;;;5.43;3.47;;;17.50;99.90;;;;;;5038437;28;20049;-60
2023/08/24 02:09:47;;;;;;;8.02;3.88;;;17.50;99.90;;;;;;5034409;28;20049;-61
2023/08/24 02:12:15;;;;;;;5.10;3.17;;;17.50;99.90;;;;;;5047395;28;20045;-61
2023/08/24 02:14:43;;;;;;;6.05;3.33;;;17.40;99.90;;;;;;5054752;28;20040;-59
2023/08/24 02:17:11;;;;;;;7.22;3.13;;;17.40;99.90;;;;;;5049742;28;20037;-60
2023/08/24 02:19:39;;;;;;;7.00;3.35;;;17.50;99.90;;;;;;5053286;28;20060;-59
2023/08/24 02:22:07;;;;;;;6.07;3.22;;;17.40;99.90;;;;;;5054347;28;20049;-59
2023/08/24 02:24:35;;;;;;;9.82;3.08;;;17.40;99.90;;;;;;5053276;28;20049;-60
2023/08/24 02:27:03;;;;;;;6.05;3.05;;;17.40;99.90;;;;;;5047529;28;20045;-60
2023/08/24 02:29:30;;;;;;;10.27;3.58;;;17.40;99.90;;;;;;5046826;28;20049;-60
2023/08/24 02:31:58;;;;;;;5.22;3.35;;;17.40;99.90;;;;;;5052683;28;20040;-60
2023/08/24 02:34:26;;;;;;;6.88;4.20;;;17.40;99.90;;;;;;5054281;28;20059;-60
2023/08/24 02:36:57;;;;;;;8.48;3.30;;;17.40;99.90;;;;;;5054058;28;20049;-59
2023/08/24 02:39:25;;;;;;;7.00;3.13;;;17.40;99.90;;;;;;5052617;28;20056;-60
2023/08/24 02:41:52;;;;;;;8.55;3.45;;;17.40;99.90;;;;;;5053958;28;20048;-60
2023/08/24 02:44:20;;;;;;;10.05;3.63;;;17.40;99.90;;;;;;5068183;28;20045;-60
2023/08/24 02:46:48;;;;;;;4.85;2.88;;;17.40;99.90;;;;;;5054054;28;20052;-60
2023/08/24 02:49:18;;;;;;;7.70;3.33;;;17.40;99.90;;;;;;5052462;28;20506;-60
2023/08/24 02:51:45;;;;;;;9.60;3.20;;;17.40;99.90;;;;;;5054119;28;20056;-60
2023/08/24 02:54:13;;;;;;;7.25;3.25;;;17.30;99.90;;;;;;5053598;28;20044;-60
2023/08/24 02:56:41;;;;;;;5.13;3.08;;;17.30;99.90;;;;;;5050842;28;20045;-60
2023/08/24 02:59:09;;;;;;;6.47;2.88;;;17.30;99.90;;;;;;5037173;28;20075;-60
2023/08/24 03:01:38;;;;;;;6.00;2.65;;;17.30;99.90;;;;;;5053673;28;20052;-60
2023/08/24 03:04:05;;;;;;;9.68;3.35;;;17.30;99.90;;;;;;5057332;28;20051;-60
2023/08/24 03:06:33;;;;;;;4.65;2.67;;;17.30;99.90;;;;;;5072596;28;20036;-59
2023/08/24 03:09:03;;;;;;;4.82;3.00;;;17.20;99.90;;;;;;5072472;28;20044;-60
2023/08/24 03:11:31;;;;;;;6.50;2.95;;;17.20;99.90;;;;;;5039400;28;20070;-59
2023/08/24 03:13:59;;;;;;;5.93;2.92;;;17.20;99.90;;;;;;5057784;28;20056;-59
2023/08/24 03:16:27;;;;;;;6.00;3.03;;;17.10;99.90;;;;;;5032671;28;20041;-59
2023/08/24 03:18:55;;;;;;;6.80;2.80;;;17.10;99.90;;;;;;5033511;28;20053;-59
2023/08/24 03:21:22;;;;;;;4.95;3.25;;;17.10;99.90;;;;;;5038565;28;20044;-60
2023/08/24 03:23:50;;;;;;;6.35;3.15;;;17.10;99.90;;;;;;5051744;28;20045;-60
2023/08/24 03:26:20;;;;;;;7.27;3.57;;;17.10;99.90;;;;;;5059436;28;20055;-60
2023/08/24 03:28:47;;;;;;;5.05;3.13;;;17.10;99.90;;;;;;5047872;28;20045;-59
2023/08/24 03:31:16;;;;;;;6.13;3.17;;;17.00;99.90;;;;;;5045563;28;20079;-59
2023/08/24 03:33:43;;;;;;;4.95;3.35;;;17.00;99.90;;;;;;5033944;28;20515;-60
2023/08/24 03:36:11;;;;;;;5.25;2.95;;;16.90;99.90;;;;;;5051007;28;20037;-60
2023/08/24 03:38:39;;;;;;;10.27;3.22;;;16.90;99.90;;;;;;5049057;28;20037;-60
2023/08/24 03:41:07;;;;;;;7.50;3.30;;;16.90;99.90;;;;;;5038005;28;20048;-59
2023/08/24 03:43:35;;;;;;;10.25;3.88;;;16.90;99.90;;;;;;5054206;28;20056;-59
2023/08/24 03:46:04;;;;;;;8.05;3.40;;;16.80;99.90;;;;;;5053985;28;20051;-59
2023/08/24 03:48:32;;;;;;;4.78;3.03;;;16.80;99.90;;;;;;5051035;28;20373;-60
2023/08/24 03:51:00;;;;;;;4.95;3.25;;;16.80;99.90;;;;;;5044946;28;20042;-60
2023/08/24 03:53:29;;;;;;;6.43;3.00;;;16.80;99.90;;;;;;5043095;28;20037;-60
2023/08/24 03:55:56;;;;;;;3.85;2.42;;;16.70;99.90;;;;;;5045665;28;20036;-59
2023/08/24 03:58:24;;;;;;;3.33;2.58;;;16.70;99.90;;;;;;5046914;28;20052;-59
2023/08/24 04:00:53;;;;;;;4.25;2.55;;;16.70;99.90;;;;;;5022507;28;20041;-59
2023/08/24 04:03:22;;;;;;;3.22;2.65;;;16.70;99.90;;;;;;5036604;28;20041;-59
2023/08/24 04:05:50;;;;;;;5.65;2.95;;;16.70;99.90;;;;;;5046317;28;20565;-60
2023/08/24 04:08:17;;;;;;;6.38;3.78;;;16.70;99.90;;;;;;5051901;28;20063;-59
2023/08/24 04:10:45;;;;;;;9.07;4.07;;;16.70;99.90;;;;;;5049925;28;20045;-59
2023/08/24 04:13:13;;;;;;;12.27;5.43;;;16.70;99.90;;;;;;5047697;28;20044;-60
2023/08/24 04:15:41;;;;;;;12.55;6.10;;;16.70;99.90;;;;;;5042780;28;20044;-60
2023/08/24 04:18:08;;;;;;;5.85;4.28;;;16.70;99.90;;;;;;5032502;28;20049;-59
2023/08/24 04:20:37;;;;;;;9.77;4.90;;;16.60;99.90;;;;;;5046784;28;20057;-60
2023/08/24 04:23:05;;;;;;;13.40;5.18;;;16.60;99.90;;;;;;5014534;28;20056;-60
2023/08/24 04:25:35;;;;;;;8.50;5.20;;;16.60;99.90;;;;;;5045418;28;20049;-60
2023/08/24 04:28:02;;;;;;;10.32;4.68;;;16.60;99.90;;;;;;5035865;28;20041;-59
2023/08/24 04:30:30;;;;;;;10.05;5.10;;;16.60;99.90;;;;;;5044806;28;20040;-60
2023/08/24 04:32:59;;;;;;;10.93;6.35;;;16.60;99.90;;;;;;5035638;28;20041;-60
2023/08/24 04:35:27;;;;;;;8.50;5.50;;;16.60;99.90;;;;;;5039209;28;20049;-60
2023/08/24 04:37:55;;;;;;;8.85;5.05;;;16.50;99.90;;;;;;5046719;28;20056;-59
2023/08/24 04:40:22;;;;;;;8.23;5.53;;;16.50;99.90;;;;;;5049493;28;20048;-60
2023/08/24 04:42:50;;;;;;;8.02;5.05;;;16.50;99.90;;;;;;5040151;28;20036;-60
2023/08/24 04:45:18;;;;;;;9.60;5.10;;;16.50;99.90;;;;;;5043515;28;20042;-60
2023/08/24 04:47:46;;;;;;;11.52;6.15;;;16.40;99.90;;;;;;5036975;28;20066;-60
2023/08/24 04:50:14;;;;;;;9.75;5.47;;;16.40;99.90;;;;;;5035042;28;20050;-60
2023/08/24 04:52:41;;;;;;;11.57;5.75;;;16.40;99.90;;;;;;5028188;28;20060;-60
2023/08/24 04:55:09;;;;;;;9.23;5.80;;;16.40;99.90;;;;;;5034703;28;20045;-60
2023/08/24 04:57:37;;;;;;;10.25;5.28;;;16.40;99.90;;;;;;5047889;28;20051;-60
2023/08/24 05:00:06;;;;;;;10.45;5.90;;;16.40;99.90;;;;;;5047925;28;20056;-61
2023/08/24 05:02:35;;;;;;;12.57;5.60;;;16.40;99.90;;;;;;5023914;28;20045;-61
2023/08/24 05:05:03;;;;;;;9.85;5.05;;;16.40;99.90;;;;;;5041542;28;20064;-60
2023/08/24 05:07:31;;;;;;;8.10;5.05;;;16.40;99.90;;;;;;5037355;28;20501;-60
2023/08/24 05:09:59;;;;;;;8.80;4.68;;;16.50;99.90;;;;;;5042874;28;20512;-60
2023/08/24 05:12:27;;;;;;;7.25;4.60;;;16.40;99.90;;;;;;5045405;28;20044;-59
2023/08/24 05:14:55;;;;;;;7.60;4.00;;;16.40;99.90;;;;;;5063205;28;20486;-59
2023/08/24 05:17:24;;;;;;;8.57;4.72;;;16.50;99.90;;;;;;5060462;28;20060;-59
2023/08/24 05:19:54;;;;;;;11.43;4.20;;;16.50;99.90;;;;;;5043074;28;20439;-59
2023/08/24 05:22:22;;;;;;;9.98;4.53;;;16.50;99.90;;;;;;5041534;28;20060;-59
2023/08/24 05:24:49;;;;;;;5.57;3.60;;;16.50;99.90;;;;;;5043368;28;20044;-61
2023/08/24 05:27:17;;;;;;;8.80;4.47;;;16.40;99.90;;;;;;5046555;28;20041;-59
2023/08/24 05:29:45;;;;;;;7.10;4.80;;;16.40;99.90;;;;;;5047845;28;20064;-59
2023/08/24 05:32:12;;;;;;;13.13;4.38;;;16.40;99.90;;;;;;5051749;28;20056;-60
2023/08/24 05:34:40;;;;;;;9.18;4.53;;;16.30;99.90;;;;;;5054065;28;20503;-60
2023/08/24 05:37:08;;;;;;;8.50;4.55;;;16.40;99.90;;;;;;5038169;28;20060;-59
2023/08/24 05:39:35;;;;;;;10.00;5.10;;;16.30;99.90;;;;;;5053764;28;20060;-59
2023/08/24 05:42:03;;;;;;;7.28;4.40;;;16.30;99.90;;;;;;5049450;28;20583;-60
2023/08/24 05:44:31;;;;;;;11.70;5.05;;;16.20;99.90;;;;;;5053523;28;20056;-60
2023/08/24 05:46:59;;;;;;;10.32;4.88;;;16.20;99.90;;;;;;5035464;28;20053;-59
2023/08/24 05:49:27;;;;;;;7.57;4.22;;;16.20;99.90;;;;;;5052837;28;20044;-59
2023/08/24 05:51:55;;;;;;;10.18;4.78;;;16.20;99.90;;;;;;5042798;28;20045;-60
2023/08/24 05:54:25;;;;;;;11.98;4.80;;;16.20;99.90;;;;;;5054475;28;20396;-60
2023/08/24 05:56:53;;;;;;;13.68;4.90;;;16.10;99.90;;;;;;5054547;28;20594;-59
2023/08/24 05:59:21;;;;;;;11.85;4.82;;;16.20;99.90;;;;;;5052831;28;20056;-60
2023/08/24 06:01:48;;;;;;;13.80;5.03;;;16.20;99.90;;;;;;5053163;28;20400;-60
2023/08/24 06:04:16;;;;;;;9.93;5.18;;;16.20;99.90;;;;;;5049610;28;20057;-60
2023/08/24 06:06:44;;;;;;;9.25;4.68;;;16.20;99.90;;;;;;5033634;28;20512;-59
2023/08/24 06:09:12;;;;;;;11.85;5.07;;;16.20;99.90;;;;;;5050134;28;20052;-60
2023/08/24 06:11:40;;;;;;;12.77;5.03;;;16.30;99.90;;;;;;5053776;28;20049;-60
2023/08/24 06:14:08;;;;;;;5.70;3.97;;;16.30;99.90;;;;;;5070781;28;20523;-59
2023/08/24 06:16:35;;;;;;;6.47;4.35;;;16.30;99.90;;;;;;5071638;28;20063;-60
2023/08/24 06:19:03;;;;;;;6.80;4.03;;;16.40;99.90;;;;;;5033446;28;20057;-59
2023/08/24 06:21:32;;;;;;;8.38;3.72;;;16.40;99.90;;;;;;5036789;28;20045;-60
2023/08/24 06:24:01;;;;;;;5.82;3.58;;;16.50;99.90;;;;;;5052286;28;20060;-60
2023/08/24 06:26:28;;;;;;;6.72;3.22;;;16.50;99.90;;;;;;5053911;28;20056;-60
2023/08/24 06:28:56;;;;;;;7.72;3.33;;;16.50;99.90;;;;;;5050966;28;20397;-60
2023/08/24 06:31:23;;;;;;;7.53;3.60;;;16.60;99.90;;;;;;5043357;28;20633;-60
2023/08/24 06:33:52;;;;;;;12.18;3.28;;;16.60;99.90;;;;;;5049567;28;20382;-60
2023/08/24 06:36:20;;;;;;;4.78;3.55;;;16.60;99.90;;;;;;5046996;28;20041;-59
2023/08/24 06:38:48;;;;;;;4.55;2.15;;;16.60;99.90;;;;;;5045399;28;20052;-59
2023/08/24 06:41:15;;;;;;;6.00;1.90;;;16.60;99.90;;;;;;5042966;28;20048;-59
2023/08/24 06:43:43;;;;;;;3.45;1.60;;;16.70;99.90;;;;;;5057445;28;20045;-59
2023/08/24 06:46:11;;;;;;;3.80;1.63;;;16.70;99.90;;;;;;5044040;28;20049;-60
2023/08/24 06:48:39;;;;;;;3.95;1.52;;;16.70;99.90;;;;;;5041576;28;20053;-60
2023/08/24 06:51:07;;;;;;;4.43;1.38;;;16.60;99.90;;;;;;5048765;28;20056;-60
2023/08/24 06:53:37;;;;;;;4.88;1.63;;;16.70;99.90;;;;;;5050141;28;20048;-60
2023/08/24 06:56:05;;;;;;;3.67;1.50;;;16.70;99.90;;;;;;5044517;28;20528;-60
2023/08/24 06:58:33;;;;;;;3.05;1.65;;;16.80;99.90;;;;;;5039545;28;20155;-61
2023/08/24 07:01:05;;;;;;;5.05;1.65;;;16.70;99.90;;;;;;5046700;28;20048;-60
2023/08/24 07:03:33;;;;;;;6.90;2.03;;;16.80;99.90;;;;;;5046172;28;20059;-60
2023/08/24 07:06:01;;;;;;;3.58;1.70;;;16.80;99.90;;;;;;5046976;28;20052;-60
2023/08/24 07:08:29;;;;;;;6.18;1.88;;;16.80;99.90;;;;;;5046313;28;20048;-60
2023/08/24 07:10:56;;;;;;;6.82;1.70;;;16.90;99.90;;;;;;5043261;28;20053;-60
2023/08/24 07:13:26;;;;;;;3.20;1.63;;;16.90;99.90;;;;;;5049378;28;20051;-61
2023/08/24 07:15:55;;;;;;;4.30;1.55;;;17.00;99.90;;;;;;5067316;28;20051;-60
2023/08/24 07:18:26;;;;;;;6.33;1.90;;;17.00;99.90;;;;;;5050651;28;20048;-60
2023/08/24 07:20:54;;;;;;;3.42;1.50;;;17.00;99.90;;;;;;5033518;28;20045;-61
2023/08/24 07:23:22;;;;;;;5.10;1.58;;;17.00;99.90;;;;;;5039614;28;20056;-60
2023/08/24 07:25:50;;;;;;;4.93;1.30;;;17.00;99.90;;;;;;5042189;28;20423;-62
2023/08/24 07:28:18;;;;;;;6.75;2.00;;;17.10;99.90;;;;;;5037619;28;20468;-60
2023/08/24 07:30:46;;;;;;;4.53;1.60;;;17.10;99.90;;;;;;5046750;28;20041;-60
2023/08/24 07:33:13;;;;;;;4.90;1.55;;;17.20;99.90;;;;;;5045933;28;20057;-60
2023/08/24 07:35:41;;;;;;;1.70;1.40;;;17.20;99.90;;;;;;5045934;28;20049;-60
2023/08/24 07:38:09;;;;;;;4.30;1.58;;;17.30;99.90;;;;;;5041560;28;20038;-60
2023/08/24 07:40:37;;;;;;;4.55;1.45;;;17.40;99.90;;;;;;5034363;28;20525;-60
2023/08/24 07:43:04;;;;;;;2.70;1.35;;;17.50;99.90;;;;;;5040448;28;20315;-60
2023/08/24 07:45:33;;;;;;;8.00;1.50;;;17.60;99.90;;;;;;5046216;28;20044;-60
2023/08/24 07:48:01;;;;;;;2.92;1.20;;;17.70;99.90;;;;;;5042070;28;20063;-60
2023/08/24 07:50:28;;;;;;;5.55;1.70;;;17.90;99.90;;;;;;5026155;28;20050;-61
2023/08/24 07:52:56;;;;;;;4.03;1.10;;;18.00;99.90;;;;;;5035384;28;20052;-62
2023/08/24 07:55:24;;;;;;;2.25;1.42;;;18.20;99.90;;;;;;5045944;28;20425;-59
2023/08/24 07:57:53;;;;;;;2.97;1.67;;;18.20;99.90;;;;;;5044460;28;20040;-60
2023/08/24 08:00:21;;;;;;;5.28;1.50;;;18.30;99.90;;;;;;5044666;28;20052;-60
2023/08/24 08:02:52;;;;;;;2.00;1.25;;;18.40;99.90;;;;;;5044756;28;20068;-60
2023/08/24 08:05:22;;;;;;;6.50;1.77;;;18.40;99.90;;;;;;5043619;28;20113;-60
2023/08/24 08:07:50;;;;;;;2.97;1.50;;;18.60;99.90;;;;;;5045424;28;20052;-59
2023/08/24 08:10:20;;;;;;;1.98;1.10;;;18.80;99.90;;;;;;5046019;28;20056;-60
2023/08/24 08:12:48;;;;;;;1.13;0.93;;;19.00;99.90;;;;;;5044546;28;20041;-59
2023/08/24 08:15:15;;;;;;;3.35;1.00;;;19.10;99.90;;;;;;5045391;28;20049;-59
2023/08/24 08:17:44;;;;;;;3.55;0.93;;;19.20;99.90;;;;;;5046872;28;20041;-60
2023/08/24 08:20:14;;;;;;;2.05;1.15;;;19.30;99.90;;;;;;5049202;28;20056;-59
2023/08/24 08:22:42;;;;;;;3.42;1.40;;;19.50;99.90;;;;;;5047172;28;20044;-59
2023/08/24 08:25:12;;;;;;;3.15;1.15;;;19.60;99.90;;;;;;5038235;28;20052;-60
2023/08/24 08:27:39;;;;;;;3.42;1.00;;;19.70;99.90;;;;;;5038392;28;20053;-60
2023/08/24 08:30:07;;;;;;;1.70;0.85;;;19.80;99.90;;;;;;5047027;28;20493;-60
2023/08/24 08:32:35;;;;;;;3.15;1.00;;;19.90;99.90;;;;;;5054854;28;20048;-60
2023/08/24 08:35:04;;;;;;;2.22;1.20;;;19.80;99.90;;;;;;5054926;28;20041;-60
2023/08/24 08:37:33;;;;;;;2.33;1.10;;;19.80;99.90;;;;;;5048652;28;20063;-60
2023/08/24 08:40:01;;;;;;;2.42;1.30;;;19.70;99.90;;;;;;5047072;28;20055;-60
2023/08/24 08:42:30;;;;;;;2.67;1.35;;;19.60;99.90;;;;;;5044649;28;20552;-60
2023/08/24 08:45:02;;;;;;;2.75;1.10;;;19.60;99.90;;;;;;5061180;28;20049;-60
2023/08/24 08:47:31;;;;;;;4.30;1.30;;;19.60;99.90;;;;;;5035914;28;20041;-60
2023/08/24 08:50:00;;;;;;;3.25;1.52;;;19.60;99.90;;;;;;5032892;28;20041;-60
2023/08/24 08:52:27;;;;;;;7.50;1.80;;;19.50;99.90;;;;;;5013408;28;20056;-60
2023/08/24 08:54:55;;;;;;;4.70;1.30;;;19.50;99.90;;;;;;5032327;28;20064;-60
2023/08/24 08:57:25;;;;;;;4.00;2.22;;;19.50;99.90;;;;;;5031134;28;20060;-60
2023/08/24 08:59:53;;;;;;;3.20;2.30;;;19.50;99.90;;;;;;5043666;28;20041;-60
2023/08/24 09:02:23;;;;;;;4.82;3.35;;;19.50;99.90;;;;;;5041890;28;20053;-61
2023/08/24 09:04:51;;;;;;;5.60;2.90;;;19.40;99.90;;;;;;5044886;28;20055;-61
2023/08/24 09:07:20;;;;;;;;;;;19.30;99.90;;;;;;5047598;28;20485;-60
2023/08/24 09:09:48;;;;;;;5.63;3.70;;;19.30;99.90;;;;;;5047871;28;19924;-60
2023/08/24 09:12:16;;;;;;;2.90;2.22;;;19.20;99.90;;;;;;5046174;28;20064;-61
2023/08/24 09:14:44;;;;;;;4.65;4.07;;;19.10;99.90;;;;;;5031227;28;20041;-60
2023/08/24 09:17:22;;;;;;;4.20;3.30;;;19.00;99.90;;;;;;5028109;28;20053;-61
2023/08/24 09:19:54;;;;;;;5.78;2.40;;;19.00;99.90;;;;;;5028717;28;20045;-60
2023/08/24 09:22:22;;;;;;;8.93;6.97;;;19.00;99.90;;;;;;5047519;28;20060;-60
2023/08/24 09:24:54;;;;;;;8.82;7.15;;;19.10;99.90;;;;;;5048059;28;20049;-60
2023/08/24 09:27:22;;;;;;;20.80;12.55;;;19.10;99.90;;;;;;5042661;28;20045;-60
2023/08/24 09:29:52;;;;;;;22.35;17.58;;;19.10;99.90;;;;;;5047786;28;20424;-60
2023/08/24 09:32:34;;;;;;;20.88;15.38;;;19.10;99.90;;;;;;5030829;28;20052;-61
2023/08/24 09:35:10;;;;;;;22.13;13.85;;;19.10;99.90;;;;;;5045961;28;20553;-60
2023/08/24 09:37:38;;;;;;;16.42;12.75;;;18.90;99.90;;;;;;5047264;28;20037;-59
2023/08/24 09:40:07;;;;;;;14.40;11.10;;;18.80;99.90;;;;;;5042862;28;20052;-60
2023/08/24 09:42:40;;;;;;;;;;;18.70;99.90;;;;;;5049311;28;20045;-59
2023/08/24 09:45:16;;;;;;;13.73;10.80;;;18.60;99.90;;;;;;5066196;28;20399;-59
2023/08/24 09:47:54;;;;;;;16.20;12.63;;;18.40;99.90;;;;;;5029808;28;20064;-59
2023/08/24 09:50:22;;;;;;;20.55;14.35;;;18.30;99.90;;;;;;5046964;28;20041;-60
2023/08/24 09:52:57;;;;;;;24.25;17.30;;;18.20;99.90;;;;;;5047053;28;20056;-60
2023/08/24 09:55:30;;;;;;;25.50;19.20;;;18.20;99.90;;;;;;5047836;28;20041;-59
2023/08/24 09:58:00;;;;;;;24.55;18.95;;;18.20;99.90;;;;;;5045423;28;20389;-59
2023/08/24 10:00:28;;;;;;;25.02;19.73;;;18.20;99.90;;;;;;5044195;28;20698;-59
2023/08/24 10:02:57;;;;;;;26.13;19.60;;;18.20;99.90;;;;;;5035183;28;20049;-59
2023/08/24 10:05:27;;;;;;;28.98;19.13;;;18.20;99.90;;;;;;5043370;28;20488;-59
2023/08/24 10:08:14;;;;;;;26.15;19.45;;;18.20;99.90;;;;;;5033598;28;20041;-59
2023/08/24 10:10:43;;;;;;;24.05;18.83;;;18.20;99.90;;;;;;5047514;28;20049;-59
2023/08/24 10:13:43;;;;;;;26.08;18.35;;;18.30;99.90;;;;;;5056745;28;20059;-60
2023/08/24 10:16:13;;;;;;;21.60;16.83;;;18.40;99.90;;;;;;5052623;28;20060;-59
2023/08/24 10:18:41;;;;;;;20.73;15.05;;;18.50;99.90;;;;;;5035952;28;20528;-60
2023/08/24 10:21:09;;;;;;;18.15;14.48;;;18.60;99.90;;;;;;5030548;28;20630;-60
2023/08/24 10:23:38;;;;;;;15.45;13.40;;;18.80;99.90;;;;;;5043589;28;20045;-59
2023/08/24 10:26:07;;;;;;;22.55;14.02;;;19.00;99.90;;;;;;5047357;28;20244;-59
2023/08/24 10:28:36;;;;;;;20.58;14.02;;;19.20;99.90;;;;;;5048528;28;20056;-59
2023/08/24 10:31:04;;;;;;;19.90;15.63;;;19.30;99.90;;;;;;5045343;28;20037;-60
2023/08/24 10:33:34;;;;;;;23.63;16.60;;;19.40;99.90;;;;;;5041072;28;20048;-60
2023/08/24 10:36:06;;;;;;;23.25;19.33;;;19.50;99.90;;;;;;5046742;28;20686;-59
2023/08/24 10:38:44;;;;;;;25.88;20.40;;;19.50;99.90;;;;;;5050292;28;20504;-60
2023/08/24 10:41:14;;;;;;;30.08;21.55;;;19.40;99.90;;;;;;5049516;28;20055;-60
2023/08/24 10:43:49;;;;;;;26.85;22.55;;;19.40;99.90;;;;;;5048422;28;20079;-60
2023/08/24 10:46:17;;;;;;;27.77;20.90;;;19.30;99.90;;;;;;5044267;28;20037;-59
2023/08/24 10:48:47;;;;;;;;;;;19.30;99.90;;;;;;5042612;28;20060;-60
2023/08/24 10:51:21;;;;;;;25.77;20.92;;;19.20;99.90;;;;;;5050240;28;19920;-60
2023/08/24 10:53:58;;;;;;;25.60;18.60;;;19.10;99.90;;;;;;5045419;28;20045;-60
2023/08/24 10:56:39;;;;;;;21.17;16.50;;;19.10;99.90;;;;;;5041762;28;20511;-60
2023/08/24 10:59:12;;;;;;;18.13;16.13;;;19.10;99.90;;;;;;5055820;28;20068;-60
2023/08/24 11:01:42;;;;;;;20.67;17.55;;;19.00;99.90;;;;;;5041581;28;20053;-60
2023/08/24 11:04:11;;;;;;;20.80;16.77;;;19.00;99.90;;;;;;5027595;28;20041;-60
2023/08/24 11:06:56;;;;;;;21.83;15.82;;;19.00;99.90;;;;;;5044190;28;20055;-60
2023/08/24 11:09:24;;;;;;;20.55;12.80;;;18.90;99.90;;;;;;5048214;28;20057;-60
2023/08/24 11:11:57;;;;;;;14.65;9.27;;;18.80;99.90;;;;;;5049545;28;20339;-60
2023/08/24 11:14:26;;;;;;;17.48;9.57;;;18.80;99.90;;;;;;5065745;28;20045;-60
2023/08/24 11:16:58;;;;;;;12.70;7.78;;;18.80;99.90;;;;;;5049776;28;20393;-60
2023/08/24 11:19:26;;;;;;;10.73;6.30;;;18.80;99.90;;;;;;5046462;28;20048;-59
2023/08/24 11:21:54;;;;;;;14.15;5.00;;;18.80;99.90;;;;;;5049655;28;20045;-60
2023/08/24 11:24:22;;;;;;;7.07;3.50;;;18.80;99.90;;;;;;5062651;28;20045;-59
2023/08/24 11:26:52;;;;;;;14.25;3.35;;;18.80;99.90;;;;;;5050073;28;20040;-60
2023/08/24 11:29:20;;;;;;;8.98;3.30;;;19.00;99.90;;;;;;5048287;28;20049;-60
2023/08/24 11:31:48;;;;;;;7.13;2.85;;;19.10;99.90;;;;;;5044470;28;20046;-60
2023/08/24 11:34:16;;;;;;;6.13;2.65;;;19.30;99.90;;;;;;5047749;28;20055;-60
2023/08/24 11:36:48;;;;;;;7.47;2.28;;;19.40;99.90;;;;;;5060941;28;20056;-61
2023/08/24 11:39:19;;;;;;;12.70;2.10;;;19.70;99.90;;;;;;5048680;28;20492;-60
2023/08/24 11:42:02;;;;;;;5.43;2.63;;;19.80;99.90;;;;;;5049669;28;20045;-60
2023/08/24 11:44:51;;;;;;;9.50;1.95;;;19.90;99.90;;;;;;5040906;28;20480;-60
2023/08/24 11:47:23;;;;;;;7.03;2.10;;;20.00;99.90;;;;;;5041318;28;20038;-60
2023/08/24 11:49:51;;;;;;;4.32;1.90;;;20.20;99.90;;;;;;5048307;28;20052;-60
2023/08/24 11:52:19;;;;;;;6.68;1.88;;;20.30;99.90;;;;;;5049179;28;20049;-61
2023/08/24 11:54:46;;;;;;;5.93;1.92;;;20.60;99.90;;;;;;5045086;28;20049;-61
2023/08/24 11:57:14;;;;;;;4.40;1.77;;;20.70;99.90;;;;;;5031529;28;20049;-60
2023/08/24 11:59:43;;;;;;;4.13;1.48;;;20.90;99.90;;;;;;5045610;28;20053;-62
2023/08/24 12:02:11;;;;;;;8.45;2.40;;;21.00;99.90;;;;;;5038716;28;20041;-60
2023/08/24 12:04:44;;;;;;;11.38;2.28;;;21.20;99.90;;;;;;5044623;28;20055;-63
2023/08/24 12:07:12;;;;;;;5.93;2.08;;;21.30;99.90;;;;;;5043909;28;20041;-61
2023/08/24 12:09:41;;;;;;;8.63;1.50;;;21.40;99.90;;;;;;5045486;28;20060;-62
2023/08/24 12:12:16;;;;;;;5.22;1.88;;;21.50;99.90;;;;;;5044083;28;20500;-62
2023/08/24 12:14:46;;;;;;;8.80;2.08;;;21.60;99.90;;;;;;5046150;28;20060;-62
2023/08/24 12:17:16;;;;;;;4.47;1.58;;;21.60;99.90;;;;;;5038230;28;20038;-62
2023/08/24 12:19:45;;;;;;;8.43;1.92;;;21.50;99.90;;;;;;5044064;28;20052;-61
2023/08/24 12:22:17;;;;;;;4.93;2.05;;;21.50;99.90;;;;;;5045872;28;20044;-62
2023/08/24 12:24:48;;;;;;;3.72;2.13;;;21.40;99.90;;;;;;5045883;28;20500;-61
2023/08/24 12:27:19;;;;;;;6.18;2.00;;;21.30;99.90;;;;;;5065878;28;20040;-62
2023/08/24 12:29:48;;;;;;;7.25;2.40;;;21.10;99.90;;;;;;5045435;28;20060;-62
2023/08/24 12:32:19;;;;;;;7.93;2.20;;;21.00;99.90;;;;;;5040399;28;20506;-60
2023/08/24 12:34:47;;;;;;;10.77;2.70;;;20.90;99.90;;;;;;5044220;28;20468;-61
2023/08/24 12:37:17;;;;;;;6.63;2.72;;;20.80;99.90;;;;;;5045546;28;20052;-60
2023/08/24 12:39:46;;;;;;;11.60;4.05;;;20.60;99.90;;;;;;5044979;28;20048;-62
2023/08/24 12:42:13;;;;;;;9.52;3.95;;;20.50;99.90;;;;;;5043400;28;20052;-61
2023/08/24 12:44:41;;;;;;;15.63;4.57;;;20.50;99.90;;;;;;5064461;28;20052;-60
2023/08/24 12:47:09;;;;;;;14.75;5.00;;;20.40;99.90;;;;;;5053155;28;20064;-61
2023/08/24 12:49:36;;;;;;;11.65;5.63;;;20.40;99.90;;;;;;5042255;28;20045;-60
2023/08/24 12:52:04;;;;;;;11.68;5.88;;;20.50;99.90;;;;;;5027768;28;20056;-61
2023/08/24 12:54:32;;;;;;;14.07;6.32;;;20.50;99.90;;;;;;5046047;28;20053;-60